x

Mid Gulf - 180 Nm South Of Southwest Pass, La (42001) Wave Buoy

12:50am - Thu 31st Jul 2014 All times are UTC.

  • Sig Wave height 1.3ft
  • Peak Period 5s
  • Average Period 4s
  • Wind
    7mph, 9mph gusts
  • Sea Temp 88°f
  • Air Temp 85°f
  • Sea Pressure 1015.9mb

More Historic Weather Station data

Upgrade to MSW Pro to gain access to the past 30 days of data for over 8000 Wavebouys and Weather Stations around the globe.

Join Pro

Comparision Forecast

View Surf forecast
   
Thu 07/31 12:50am 1.3ft 5s 4s 7 9 mph 1015.9mb 88f 85f
Wed 07/30 11:50pm 1.3ft 6s 4s 7 9 mph 1015.6mb 88f 85f
10:50pm 1.3ft 5s 4s 9 11 mph 1015.5mb 88f 85f
9:50pm 1.3ft 5s 4s 9 11 mph 1015.8mb 88f 85f
8:50pm 1.3ft 4s 4s 9 11 mph 1016.1mb 88f 85f
7:50pm 1.3ft 5s 4s 9 11 mph 1016.5mb 88f 85f
6:50pm 1.3ft 6s 4s 9 11 mph 1016.9mb 88f 85f
5:50pm 1.6ft 5s 4s 7
mph
1017.3mb 88f 84f
4:50pm 1.6ft 6s 4s 9 11 mph 1017.6mb 88f 84f
3:50pm 1.6ft 6s 4s 9 11 mph 1017.8mb 87f 85f
2:50pm 1.6ft 6s 4s 7 9 mph 1017.7mb 87f 85f
1:50pm 2ft 6s 4s 7 9 mph 1017.5mb 87f 84f
12:50pm 2ft 6s 4s 9 11 mph 1017.3mb 87f 84f
11:50am 2ft 6s 5s 7 9 mph 1017.1mb 87f 84f
10:50am 2.5ft 6s 5s 7
mph
1016.9mb 87f 84f
9:50am 2.5ft 6s 5s 4 7 mph 1016.6mb 87f 84f
8:50am 2.5ft 6s 5s 4 7 mph 1016.5mb 87f 84f
7:50am 2.5ft 6s 5s 4 7 mph 1016.6mb 87f 84f
6:50am 2.5ft 6s 5s 2 4 mph 1016.9mb 87f 84f
5:50am 2.5ft 6s 5s 2 4 mph 1017.4mb 87f 84f
4:50am 2ft 6s 5s 2 4 mph 1017.8mb 87f 85f
3:50am 2.5ft 6s 5s 2 4 mph 1018mb 87f 85f
2:50am 2ft 6s 4s 7 9 mph 1017.7mb 87f 85f
1:50am 2ft 5s 4s 9 11 mph 1016.9mb 87f 86f
12:50am 2ft 5s 4s 11 13 mph 1016.6mb 88f 86f
Tue 07/29 11:50pm 1.6ft 5s 4s 13 16 mph 1016.3mb 88f 86f
10:50pm 1.6ft 4s 4s 9 11 mph 1016.9mb 89f 86f
9:50pm 1.6ft 4s 4s 11 13 mph 1017.1mb 88f 86f
8:50pm 1.6ft 4s 4s 11 13 mph 1017.5mb 88f 86f
7:50pm 1.6ft 4s 3s 11 13 mph 1018.1mb 88f 86f
6:50pm 1.6ft 3s 3s 11 13 mph 1018.3mb 88f 85f
5:50pm 1.6ft 3s 3s 13 16 mph 1018.6mb 88f 85f
4:50pm 1.3ft 2s 3s 11 16 mph 1019.2mb 88f 86f
3:50pm 1ft 6s 4s 11 13 mph 1019.6mb 87f 85f
2:50pm 1ft 8s 4s 9 13 mph 1019.2mb 87f 85f
1:50pm 1ft 6s 5s 9 13 mph 1018.8mb 87f 85f
12:50pm 1ft 9s 5s 7 9 mph 1018.5mb 87f 85f
11:50am 1ft 6s 5s 7 9 mph 1017.7mb 88f 85f
10:50am 1ft 6s 5s 7 9 mph 1016.9mb 88f 85f
9:50am 1ft 7s 5s 4 7 mph 1017mb 88f 85f
8:50am 1ft 6s 5s 4 7 mph 1017.2mb 89f 85f
7:50am 1ft 7s 5s 4 7 mph 1017.8mb 88f 85f
6:50am 1ft 8s 5s 2 4 mph 1018.3mb 89f 85f
5:50am 1ft 6s 5s 2 4 mph 1018.8mb 89f 85f
4:50am 1ft 6s 5s  -  2 mph 1019.2mb 88f 85f
3:50am 1ft 7s 5s  -  2 mph 1019.3mb 89f 85f
2:50am 1ft 7s 5s  -  mph 1018.9mb 89f 85f
1:50am 1ft 7s 5s  -  mph 1018.4mb 89f 85f
12:50am 1ft 7s 5s 2 4 mph 1018mb 89f 86f
Mon 07/28 11:50pm 1ft 5s 5s 2 4 mph 1017.8mb 90f 86f
10:50pm 1.3ft 7s 5s 2 4 mph 1018.3mb 90f 86f
9:50pm 1ft 6s 5s 2 4 mph 1019mb 90f 86f
8:50pm 1.3ft 7s 5s 4 7 mph 1019.5mb 90f 86f
7:50pm 1ft 6s 4s 4
mph
1020mb 90f 86f
6:50pm 1ft 8s 4s 2 4 mph 1020.6mb 91f 86f
5:50pm 1.3ft 7s 5s  -  2 mph 1020.8mb 91f 86f
4:50pm 1.3ft 7s 5s  -  2 mph 1020.9mb 89f 85f
3:50pm 1.3ft 6s 5s  -  2 mph 1020.8mb 89f 85f
2:50pm 1.3ft 6s 5s  -  mph 1020.7mb 88f 85f
1:50pm 1.3ft 6s 5s  -  mph 1020.5mb 87f 86f
12:50pm 1.3ft 6s 5s  -  2 mph 1020.3mb 87f 85f
11:50am 1.3ft 7s 5s  -  2 mph 1019.8mb 87f 85f
10:50am 1.3ft 7s 5s  -  2 mph 1019.1mb 87f 84f
9:50am 1.3ft 6s 5s  -  2 mph 1018.8mb 87f 85f
8:50am 1.3ft 7s 5s 4
mph
1018.6mb 87f 85f
7:50am 1.3ft 7s 5s 4 7 mph 1018.7mb 87f 85f
6:50am 1.3ft 5s 5s 7 9 mph 1019.1mb 87f 85f
5:50am 1.3ft 6s 5s 4 7 mph 1019.5mb 87f 85f
4:50am 1ft 5s 5s 7
mph
1019.8mb 88f 85f
3:50am 1ft 6s 5s 7 9 mph 1019.9mb 88f 85f
2:50am 1ft 6s 4s 7 9 mph 1019.8mb 88f 86f
1:50am 1ft 6s 4s 7 9 mph 1019.4mb 88f 86f
12:50am 1ft 4s 4s 4 7 mph 1019.2mb 89f 86f
Sun 07/27 11:50pm 1ft 8s 4s 4 7 mph 1019.1mb 89f 86f
10:50pm 1ft 9s 4s 2 4 mph 1019mb 89f 86f
9:50pm 1ft 9s 5s 2 4 mph 1019.1mb 90f 86f
8:50pm 1ft 8s 4s 2 4 mph 1019.3mb 90f 86f
7:50pm 1ft 9s 4s 2 4 mph 1019.8mb 89f 86f
6:50pm 1ft 9s 4s 2 7 mph 1020.1mb 89f 86f
5:50pm 1ft 8s 4s 4 9 mph 1020.6mb 89f 85f
4:50pm 1ft 8s 4s 4 7 mph 1020.6mb 88f 85f
3:50pm 1ft 8s 4s 2 4 mph 1020.7mb 87f 85f
2:50pm 1ft 8s 5s 4 7 mph 1020.4mb 87f 85f
1:50pm 0.7ft  -  5s 4 7 mph 1020.3mb 87f 85f
12:50pm 1ft 8s 5s  -  2 mph 1020.1mb 87f 85f
11:50am 0.7ft  -  5s  -  mph 1019.6mb 87f 85f
10:50am 1ft 9s 5s 4
mph
1019.4mb 87f 85f
9:50am 1ft 8s 5s 4 7 mph 1018.8mb 87f 85f
8:50am 1ft 9s 5s 4 7 mph 1018.6mb 87f 85f
7:50am 1ft 9s 6s 7 9 mph 1018.5mb 87f 85f
6:50am 1ft 10s 5s 7 9 mph 1018.9mb 87f 85f
5:50am 1ft 8s 5s 7 9 mph 1019.3mb 87f 85f
4:50am 1ft 9s 5s 7
mph
1019.6mb 88f 85f
3:50am 1ft 9s 5s 4 7 mph 1019.6mb 88f 85f
2:50am 1ft 8s 5s 4 7 mph 1019.4mb 88f 85f